createdAt,value
2018-10-19T00:00:32.384Z,79.31
2018-10-19T00:03:01.142Z,78.97
2018-10-19T00:05:29.670Z,79.36
2018-10-19T00:07:58.206Z,79.30
2018-10-19T00:10:26.824Z,79.32
2018-10-19T00:12:55.270Z,79.39
2018-10-19T00:15:23.898Z,79.52
2018-10-19T00:17:52.589Z,79.54
2018-10-19T00:20:21.024Z,79.29
2018-10-19T00:22:49.886Z,79.38
2018-10-19T00:25:18.629Z,79.37
2018-10-19T00:27:47.046Z,79.75
2018-10-19T00:30:15.732Z,79.86
2018-10-19T00:32:44.848Z,79.82
2018-10-19T00:35:13.284Z,79.74
2018-10-19T00:37:42.020Z,79.92
2018-10-19T00:40:11.030Z,80.00
2018-10-19T00:42:39.454Z,79.87
2018-10-19T00:45:08.099Z,79.99
2018-10-19T00:47:36.911Z,80.13
2018-10-19T00:50:05.437Z,80.16
2018-10-19T00:52:34.079Z,80.16
2018-10-19T00:55:02.622Z,80.01
2018-10-19T00:57:31.126Z,80.38
2018-10-19T00:59:59.840Z,80.51
2018-10-19T01:02:28.715Z,80.68
2018-10-19T01:04:57.180Z,80.72
2018-10-19T01:07:25.678Z,80.72
2018-10-19T01:09:54.235Z,80.97
2018-10-19T01:12:22.710Z,80.85
2018-10-19T01:14:51.341Z,81.19
2018-10-19T01:17:20.110Z,81.00
2018-10-19T01:19:48.555Z,80.65
2018-10-19T01:22:17.480Z,81.10
2018-10-19T01:24:46.198Z,81.08
2018-10-19T01:27:14.669Z,81.07
2018-10-19T01:29:43.234Z,80.96
2018-10-19T01:32:12.008Z,80.92
2018-10-19T01:34:40.429Z,80.81
2018-10-19T01:37:09.222Z,81.07
2018-10-19T01:39:38.278Z,81.38
2018-10-19T01:42:07.149Z,81.42
2018-10-19T01:44:35.645Z,81.49
2018-10-19T01:47:04.389Z,81.41
2018-10-19T01:49:32.815Z,81.70
2018-10-19T01:52:01.336Z,81.76
2018-10-19T01:54:29.889Z,81.98
2018-10-19T01:56:58.377Z,81.93
2018-10-19T01:59:27.695Z,82.24
2018-10-19T02:01:56.252Z,81.89
2018-10-19T02:04:24.672Z,81.97
2018-10-19T02:06:53.179Z,82.29
2018-10-19T02:09:22.000Z,82.33
2018-10-19T02:11:50.442Z,82.50
2018-10-19T02:14:19.009Z,82.51
2018-10-19T02:16:47.590Z,82.41
2018-10-19T02:19:16.029Z,82.66
2018-10-19T02:21:45.251Z,82.94
2018-10-19T02:24:14.022Z,82.82
2018-10-19T02:26:42.533Z,82.84
2018-10-19T02:29:11.095Z,82.76
2018-10-19T02:31:39.730Z,82.88
2018-10-19T02:34:08.182Z,82.66
2018-10-19T02:36:36.731Z,82.84
2018-10-19T02:39:06.887Z,82.81
2018-10-19T02:41:35.354Z,82.95
2018-10-19T02:44:04.405Z,83.20
2018-10-19T02:46:33.126Z,83.13
2018-10-19T02:49:01.595Z,83.13
2018-10-19T02:51:30.166Z,83.07
2018-10-19T02:53:58.962Z,82.92
2018-10-19T02:56:27.405Z,82.75
2018-10-19T02:58:56.257Z,82.80
2018-10-19T03:01:25.236Z,82.66
2018-10-19T03:03:53.966Z,82.57
2018-10-19T03:06:22.621Z,82.74
2018-10-19T03:08:51.181Z,82.70
2018-10-19T03:11:19.678Z,82.90
2018-10-19T03:13:48.630Z,82.82
2018-10-19T03:16:17.199Z,82.81
2018-10-19T03:18:45.626Z,83.04
2018-10-19T03:21:14.406Z,82.94
2018-10-19T03:23:42.974Z,82.99
2018-10-19T03:26:11.405Z,83.16
2018-10-19T03:28:40.370Z,83.49
2018-10-19T03:31:09.011Z,83.21
2018-10-19T03:33:37.597Z,83.07
2018-10-19T03:36:06.434Z,83.10
2018-10-19T03:38:35.201Z,83.47
2018-10-19T03:41:03.651Z,83.41
2018-10-19T03:43:32.544Z,83.38
2018-10-19T03:46:01.566Z,83.27
2018-10-19T03:48:29.993Z,83.40
2018-10-19T03:50:58.700Z,83.57
2018-10-19T03:53:27.145Z,83.51
2018-10-19T03:55:55.578Z,83.43
2018-10-19T03:58:24.150Z,83.39
2018-10-19T04:00:52.774Z,83.52
2018-10-19T04:03:21.407Z,83.51
2018-10-19T04:05:50.041Z,83.86
2018-10-19T04:08:18.562Z,83.56
2018-10-19T04:10:46.986Z,83.65
2018-10-19T04:13:15.786Z,84.00
2018-10-19T04:15:44.325Z,84.06
2018-10-19T04:18:12.749Z,84.20
2018-10-19T04:20:41.354Z,83.83
2018-10-19T04:23:10.385Z,84.01
2018-10-19T04:25:39.623Z,83.91
2018-10-19T04:28:08.518Z,84.13
2018-10-19T04:30:37.994Z,84.05
2018-10-19T04:33:06.887Z,84.16
2018-10-19T04:35:35.553Z,84.09
2018-10-19T04:38:04.224Z,84.06
2018-10-19T04:40:32.658Z,84.16
2018-10-19T04:43:01.390Z,84.05
2018-10-19T04:45:29.946Z,84.15
2018-10-19T04:47:58.505Z,83.83
2018-10-19T04:50:27.359Z,83.82
2018-10-19T04:52:56.731Z,83.96
2018-10-19T04:55:25.150Z,83.62
2018-10-19T04:57:53.745Z,83.48
2018-10-19T05:00:22.469Z,83.92
2018-10-19T05:02:51.680Z,83.55
2018-10-19T05:05:20.801Z,83.94
2018-10-19T05:07:49.258Z,83.66
2018-10-19T05:10:17.689Z,84.00
2018-10-19T05:12:46.724Z,84.07
2018-10-19T05:15:15.247Z,84.02
2018-10-19T05:17:43.702Z,84.22
2018-10-19T05:20:13.737Z,84.13
2018-10-19T05:22:42.459Z,84.21
2018-10-19T05:25:12.073Z,84.40
2018-10-19T05:27:40.628Z,84.63
2018-10-19T05:30:11.322Z,84.51
2018-10-19T05:32:40.539Z,84.83
2018-10-19T05:35:09.294Z,84.83
2018-10-19T05:37:38.810Z,84.62
2018-10-19T05:40:08.256Z,84.54
2018-10-19T05:42:36.819Z,84.85
2018-10-19T05:45:07.046Z,84.79
2018-10-19T05:47:35.488Z,84.59
2018-10-19T05:50:04.680Z,84.92
2018-10-19T05:52:33.449Z,84.86
2018-10-19T05:55:01.890Z,84.95
2018-10-19T05:57:30.706Z,84.72
2018-10-19T05:59:59.789Z,85.10
2018-10-19T06:02:28.589Z,84.77
2018-10-19T06:04:57.087Z,84.69
2018-10-19T06:07:25.943Z,84.84
2018-10-19T06:09:54.390Z,84.82
2018-10-19T06:12:23.129Z,84.98
2018-10-19T06:14:52.023Z,85.41
2018-10-19T06:17:20.470Z,85.11
2018-10-19T06:19:49.043Z,85.29
2018-10-19T06:22:17.753Z,85.21
2018-10-19T06:24:46.393Z,85.23
2018-10-19T06:27:15.615Z,85.24
2018-10-19T06:29:44.399Z,85.23
2018-10-19T06:32:12.961Z,85.00
2018-10-19T06:34:41.613Z,85.79
2018-10-19T06:37:10.455Z,86.82
2018-10-19T06:39:38.921Z,87.41
2018-10-19T06:42:07.600Z,88.02
2018-10-19T06:44:36.442Z,88.07
2018-10-19T06:47:05.210Z,88.46
2018-10-19T06:49:34.071Z,88.04
2018-10-19T06:52:03.517Z,87.72
2018-10-19T06:54:31.982Z,86.61
2018-10-19T06:57:00.713Z,85.70
2018-10-19T06:59:30.226Z,84.75
2018-10-19T07:01:58.579Z,84.04
2018-10-19T07:04:27.378Z,84.10
2018-10-19T07:06:55.961Z,83.29
2018-10-19T07:09:24.446Z,82.78
2018-10-19T07:11:52.995Z,81.64
2018-10-19T07:14:21.575Z,80.19
2018-10-19T07:16:50.177Z,79.71
2018-10-19T07:19:18.874Z,79.46
2018-10-19T07:21:47.788Z,77.40
2018-10-19T07:24:16.195Z,76.66
2018-10-19T07:26:44.750Z,76.05
2018-10-19T07:29:13.480Z,75.45
2018-10-19T07:31:41.909Z,74.29
2018-10-19T07:34:10.785Z,73.28
2018-10-19T07:36:39.830Z,72.33
2018-10-19T07:39:09.094Z,70.92
2018-10-19T07:41:37.685Z,69.25
2018-10-19T07:44:06.637Z,68.28
2018-10-19T07:46:35.137Z,68.13
2018-10-19T07:49:04.021Z,67.75
2018-10-19T07:51:32.973Z,68.20
2018-10-19T07:54:01.770Z,67.52
2018-10-19T07:56:30.678Z,67.64
2018-10-19T07:58:59.466Z,67.52
2018-10-19T08:01:27.912Z,67.41
2018-10-19T08:03:56.438Z,65.43
2018-10-19T08:06:25.231Z,64.10
2018-10-19T08:08:53.759Z,65.20
2018-10-19T08:11:22.326Z,65.32
2018-10-19T08:13:51.049Z,65.04
2018-10-19T08:16:19.786Z,65.56
2018-10-19T08:18:48.546Z,65.42
2018-10-19T08:21:17.464Z,64.99
2018-10-19T08:23:45.988Z,64.79
2018-10-19T08:26:14.731Z,64.98
2018-10-19T08:28:43.887Z,65.17
2018-10-19T08:31:12.353Z,65.44
2018-10-19T08:33:40.932Z,66.18
2018-10-19T08:36:09.825Z,66.76
2018-10-19T08:38:38.297Z,66.89
2018-10-19T08:41:07.797Z,66.82
2018-10-19T08:43:36.468Z,66.57
2018-10-19T08:46:10.345Z,67.92
2018-10-19T08:48:39.102Z,68.74
2018-10-19T08:51:08.078Z,67.83
2018-10-19T08:53:37.062Z,66.78
2018-10-19T08:56:06.677Z,66.14
2018-10-19T08:58:35.630Z,66.21
2018-10-19T09:01:04.246Z,67.07
2018-10-19T09:03:32.887Z,67.10
2018-10-19T09:06:01.435Z,65.41
2018-10-19T09:08:29.996Z,64.63
2018-10-19T09:10:59.022Z,63.44
2018-10-19T09:13:27.679Z,61.31
2018-10-19T09:15:56.602Z,60.07
2018-10-19T09:18:25.482Z,59.12
2018-10-19T09:20:53.988Z,58.27
2018-10-19T09:23:22.721Z,56.52
2018-10-19T09:25:51.415Z,55.64
2018-10-19T09:28:20.045Z,54.88
2018-10-19T09:30:48.682Z,54.35
2018-10-19T09:33:17.357Z,53.51
2018-10-19T09:35:45.799Z,53.07
2018-10-19T09:38:14.302Z,52.67
2018-10-19T09:40:43.069Z,51.83
2018-10-19T09:43:11.603Z,51.07
2018-10-19T09:45:40.629Z,50.66
2018-10-19T09:48:09.693Z,51.30
2018-10-19T09:50:38.147Z,52.13
2018-10-19T09:53:06.904Z,51.95
2018-10-19T09:55:36.066Z,50.69
2018-10-19T09:58:04.782Z,49.60
2018-10-19T10:00:38.842Z,49.07
2018-10-19T10:03:07.409Z,49.38
2018-10-19T10:05:35.914Z,48.54
2018-10-19T10:08:04.911Z,47.72
2018-10-19T10:10:33.866Z,47.02
2018-10-19T10:13:02.350Z,46.12
2018-10-19T10:15:31.306Z,45.22
2018-10-19T10:18:00.198Z,44.38
2018-10-19T10:20:28.663Z,44.36
2018-10-19T10:22:57.213Z,44.02
2018-10-19T10:25:25.797Z,43.37
2018-10-19T10:27:54.297Z,43.28
2018-10-19T10:30:22.841Z,42.65
2018-10-19T10:32:51.545Z,42.23
2018-10-19T10:35:20.097Z,43.07
2018-10-19T10:37:49.057Z,43.01
2018-10-19T10:40:18.251Z,43.35
2018-10-19T10:42:46.666Z,43.35
2018-10-19T10:45:15.507Z,43.45
2018-10-19T10:47:44.566Z,42.99
2018-10-19T10:50:13.067Z,42.33
2018-10-19T10:52:41.642Z,42.03
2018-10-19T10:55:10.591Z,40.96
2018-10-19T10:57:39.073Z,39.73
2018-10-19T11:00:08.260Z,39.52
2018-10-19T11:02:36.983Z,38.71
2018-10-19T11:05:06.164Z,38.35
2018-10-19T11:07:35.037Z,38.26
2018-10-19T11:10:03.989Z,38.18
2018-10-19T11:12:32.457Z,37.61
2018-10-19T11:15:01.065Z,37.04
2018-10-19T11:17:30.024Z,36.32
2018-10-19T11:19:58.530Z,36.14
2018-10-19T11:22:27.140Z,36.65
2018-10-19T11:24:55.707Z,36.55
2018-10-19T11:27:24.173Z,36.17
2018-10-19T11:29:53.296Z,36.35
2018-10-19T11:32:22.060Z,36.34
2018-10-19T11:34:50.596Z,37.08
2018-10-19T11:37:19.421Z,37.70
2018-10-19T11:39:59.517Z,37.27
2018-10-19T11:42:28.458Z,36.77
2018-10-19T11:44:57.129Z,36.97
2018-10-19T11:47:25.930Z,37.41
2018-10-19T11:49:54.473Z,36.99
2018-10-19T11:52:23.096Z,37.19
2018-10-19T11:54:51.937Z,37.35
2018-10-19T11:57:20.471Z,37.72
2018-10-19T11:59:48.976Z,37.32
2018-10-19T12:02:17.966Z,36.53
2018-10-19T12:04:46.937Z,36.92
2018-10-19T12:07:15.474Z,36.55
2018-10-19T12:09:44.410Z,36.13
2018-10-19T12:12:12.994Z,36.25
2018-10-19T12:14:41.466Z,36.53
2018-10-19T12:17:10.475Z,36.45
2018-10-19T12:19:39.012Z,36.16
2018-10-19T12:22:07.458Z,36.59
2018-10-19T12:24:36.113Z,35.80
2018-10-19T12:27:05.154Z,35.44
2018-10-19T12:29:33.606Z,35.25
2018-10-19T12:32:02.482Z,35.09
2018-10-19T12:34:31.197Z,34.77
2018-10-19T12:36:59.651Z,35.12
2018-10-19T12:39:28.195Z,34.59
2018-10-19T12:41:57.770Z,34.01
2018-10-19T12:44:26.289Z,33.59
2018-10-19T12:47:05.958Z,32.92
2018-10-19T12:49:34.473Z,32.86
2018-10-19T12:52:02.953Z,33.17
2018-10-19T12:54:31.864Z,33.73
2018-10-19T12:57:00.479Z,33.16
2018-10-19T12:59:28.946Z,33.62
2018-10-19T13:01:57.582Z,34.65
2018-10-19T13:04:26.161Z,34.89
2018-10-19T13:06:54.840Z,34.05
2018-10-19T13:09:23.595Z,33.87
2018-10-19T13:11:52.091Z,34.31
2018-10-19T13:14:20.993Z,33.94
2018-10-19T13:16:50.430Z,33.43
2018-10-19T13:19:18.870Z,33.12
2018-10-19T13:21:47.352Z,32.14
2018-10-19T13:24:16.591Z,31.65
2018-10-19T13:26:45.042Z,31.26
2018-10-19T13:29:13.491Z,31.35
2018-10-19T13:31:42.566Z,31.05
2018-10-19T13:34:11.076Z,30.64
2018-10-19T13:36:39.519Z,30.70
2018-10-19T13:39:10.187Z,30.99
2018-10-19T13:41:38.865Z,31.10
2018-10-19T13:44:07.355Z,30.62
2018-10-19T13:46:36.348Z,30.56
2018-10-19T13:49:05.292Z,30.68
2018-10-19T13:51:34.205Z,30.86
2018-10-19T13:54:03.025Z,30.97
2018-10-19T13:56:31.964Z,31.70
2018-10-19T13:59:00.609Z,31.22
2018-10-19T14:01:29.509Z,31.95
2018-10-19T14:03:58.213Z,32.07
2018-10-19T14:06:26.901Z,33.21
2018-10-19T14:08:55.919Z,33.48
2018-10-19T14:11:24.453Z,33.95
2018-10-19T14:13:52.933Z,34.52
2018-10-19T14:16:21.949Z,35.29
2018-10-19T14:18:50.702Z,35.63
2018-10-19T14:21:19.162Z,36.39
2018-10-19T14:23:47.855Z,37.27
2018-10-19T14:26:16.412Z,37.70
2018-10-19T14:28:44.919Z,37.83
2018-10-19T14:31:14.060Z,38.00
2018-10-19T14:33:42.591Z,38.69
2018-10-19T14:36:11.183Z,38.94
2018-10-19T14:38:40.078Z,39.16
2018-10-19T14:41:08.626Z,40.01
2018-10-19T14:43:37.035Z,39.93
2018-10-19T14:46:06.178Z,40.27
2018-10-19T14:48:34.650Z,40.66
2018-10-19T14:51:03.225Z,41.06
2018-10-19T14:53:31.774Z,41.35
2018-10-19T14:56:00.296Z,41.65
2018-10-19T14:58:28.777Z,41.81
2018-10-19T15:00:58.003Z,42.45
2018-10-19T15:03:26.461Z,42.68
2018-10-19T15:05:55.080Z,42.97
2018-10-19T15:08:24.657Z,43.23
2018-10-19T15:10:53.258Z,43.39
2018-10-19T15:13:21.660Z,43.49
2018-10-19T15:15:50.305Z,43.77
2018-10-19T15:18:18.791Z,43.76
2018-10-19T15:20:47.244Z,43.94
2018-10-19T15:23:16.006Z,44.11
2018-10-19T15:25:44.449Z,44.32
2018-10-19T15:28:12.963Z,44.79
2018-10-19T15:30:42.208Z,44.82
2018-10-19T15:33:10.707Z,45.26
2018-10-19T15:35:39.090Z,45.37
2018-10-19T15:38:08.324Z,45.90
2018-10-19T15:40:36.807Z,46.25
2018-10-19T15:43:05.309Z,46.34
2018-10-19T15:45:34.168Z,46.59
2018-10-19T15:48:02.664Z,46.88
2018-10-19T15:50:31.132Z,47.31
2018-10-19T15:52:59.877Z,47.74
2018-10-19T15:55:28.317Z,47.88
2018-10-19T15:57:56.811Z,47.87
2018-10-19T16:03:16.378Z,48.49
2018-10-19T16:05:44.778Z,48.67
2018-10-19T16:08:13.372Z,48.87
2018-10-19T16:10:42.371Z,49.20
2018-10-19T16:13:10.954Z,50.01
2018-10-19T16:15:39.573Z,50.02
2018-10-19T16:18:08.314Z,50.53
2018-10-19T16:20:36.731Z,50.92
2018-10-19T16:23:05.786Z,51.21
2018-10-19T16:25:34.434Z,51.54
2018-10-19T16:28:02.912Z,52.02
2018-10-19T16:30:31.365Z,52.39
2018-10-19T16:33:00.063Z,52.81
2018-10-19T16:35:28.550Z,53.16
2018-10-19T16:37:57.037Z,53.57
2018-10-19T16:40:25.752Z,53.61
2018-10-19T16:42:54.166Z,54.05
2018-10-19T16:45:22.606Z,54.34
2018-10-19T16:47:51.730Z,54.73
2018-10-19T16:50:20.193Z,55.00
2018-10-19T16:52:48.638Z,55.27
2018-10-19T16:55:17.494Z,55.31
2018-10-19T16:57:45.949Z,56.02
2018-10-19T17:00:14.505Z,56.33
2018-10-19T17:02:43.540Z,56.44
2018-10-19T17:05:12.028Z,56.87
2018-10-19T17:07:40.497Z,57.23
2018-10-19T17:10:09.616Z,57.31
2018-10-19T17:12:38.574Z,57.51
2018-10-19T17:15:07.100Z,57.68
2018-10-19T17:17:36.258Z,58.12
2018-10-19T17:20:04.918Z,58.30
2018-10-19T17:22:33.386Z,58.58
2018-10-19T17:25:02.378Z,58.64
2018-10-19T17:27:30.818Z,58.92
2018-10-19T17:29:59.377Z,59.18
2018-10-19T17:32:28.386Z,59.44
2018-10-19T17:34:56.871Z,59.67
2018-10-19T17:37:25.405Z,59.69
2018-10-19T17:39:54.488Z,59.49
2018-10-19T17:42:22.956Z,59.75
2018-10-19T17:44:51.425Z,60.21
2018-10-19T17:47:20.488Z,60.27
2018-10-19T17:49:55.134Z,59.97
2018-10-19T17:52:24.306Z,60.17
2018-10-19T17:54:53.401Z,60.22
2018-10-19T17:57:21.876Z,60.37
2018-10-19T17:59:50.980Z,60.28
2018-10-19T18:02:19.865Z,60.79
2018-10-19T18:04:48.330Z,61.00
2018-10-19T18:07:17.709Z,61.07
2018-10-19T18:09:46.195Z,61.13
2018-10-19T18:12:14.663Z,61.38
2018-10-19T18:14:44.188Z,61.58
2018-10-19T18:17:12.745Z,61.73
2018-10-19T18:19:41.135Z,62.07
2018-10-19T18:22:10.710Z,62.04
2018-10-19T18:24:39.075Z,62.04
2018-10-19T18:27:07.564Z,62.09
2018-10-19T18:29:36.287Z,62.27
2018-10-19T18:32:05.099Z,62.49
2018-10-19T18:34:33.582Z,62.73
2018-10-19T18:37:02.860Z,62.89
2018-10-19T18:39:31.338Z,62.56
2018-10-19T18:41:59.906Z,63.15
2018-10-19T18:44:28.858Z,63.26
2018-10-19T18:46:57.415Z,63.43
2018-10-19T18:49:25.872Z,63.71
2018-10-19T18:51:54.515Z,63.96
2018-10-19T18:54:23.022Z,63.94
2018-10-19T18:56:51.470Z,64.32
2018-10-19T18:59:20.359Z,64.25
2018-10-19T19:01:48.838Z,64.53
2018-10-19T19:04:17.357Z,64.59
2018-10-19T19:06:46.742Z,64.52
2018-10-19T19:09:15.526Z,64.59
2018-10-19T19:11:44.003Z,64.55
2018-10-19T19:14:13.101Z,64.76
2018-10-19T19:16:41.809Z,64.89
2018-10-19T19:19:10.301Z,65.23
2018-10-19T19:21:39.209Z,65.26
2018-10-19T19:24:12.847Z,65.63
2018-10-19T19:26:41.637Z,65.69
2018-10-19T19:29:10.236Z,66.39
2018-10-19T19:31:38.794Z,66.48
2018-10-19T19:34:12.702Z,66.76
2018-10-19T19:36:41.459Z,66.70
2018-10-19T19:39:10.403Z,66.89
2018-10-19T19:41:44.590Z,66.90
2018-10-19T19:44:13.285Z,67.04
2018-10-19T19:46:41.726Z,67.08
2018-10-19T19:49:15.939Z,66.99
2018-10-19T19:51:44.902Z,66.88
2018-10-19T19:54:13.446Z,66.97
2018-10-19T19:56:42.123Z,66.84
2018-10-19T19:59:11.045Z,66.86
2018-10-19T20:01:39.481Z,67.17
2018-10-19T20:04:08.293Z,66.90
2018-10-19T20:06:37.079Z,66.82
2018-10-19T20:09:06.654Z,66.97
2018-10-19T20:11:35.667Z,67.07
2018-10-19T20:14:04.332Z,67.23
2018-10-19T20:16:32.849Z,67.23
2018-10-19T20:19:02.550Z,67.27
2018-10-19T20:21:31.591Z,67.64
2018-10-19T20:24:00.105Z,67.59
2018-10-19T20:26:29.225Z,67.72
2018-10-19T20:28:58.033Z,67.67
2018-10-19T20:31:26.521Z,67.62
2018-10-19T20:33:55.181Z,67.61
2018-10-19T20:36:23.979Z,68.25
2018-10-19T20:38:52.454Z,68.17
2018-10-19T20:41:21.378Z,68.56
2018-10-19T20:43:50.181Z,68.56
2018-10-19T20:46:18.646Z,68.65
2018-10-19T20:48:47.517Z,68.84
2018-10-19T20:51:16.431Z,69.35
2018-10-19T20:53:44.960Z,69.27
2018-10-19T20:56:13.849Z,69.43
2018-10-19T20:58:42.837Z,69.44
2018-10-19T21:01:11.317Z,69.59
2018-10-19T21:03:40.179Z,69.73
2018-10-19T21:06:08.881Z,69.97
2018-10-19T21:08:37.496Z,69.86
2018-10-19T21:11:06.162Z,70.15
2018-10-19T21:13:34.775Z,70.27
2018-10-19T21:16:03.171Z,70.76
2018-10-19T21:18:31.909Z,70.46
2018-10-19T21:21:00.754Z,70.48
2018-10-19T21:23:29.216Z,70.47
2018-10-19T21:25:58.327Z,70.33
2018-10-19T21:28:26.761Z,70.52
2018-10-19T21:30:55.214Z,70.45
2018-10-19T21:33:23.885Z,70.76
2018-10-19T21:35:52.358Z,70.88
2018-10-19T21:38:20.823Z,71.19
2018-10-19T21:40:49.517Z,71.15
2018-10-19T21:43:17.990Z,71.49
2018-10-19T21:45:46.493Z,71.45
2018-10-19T21:48:15.530Z,71.82
2018-10-19T21:50:43.985Z,71.54
2018-10-19T21:53:12.530Z,72.20
2018-10-19T21:55:42.139Z,72.07
2018-10-19T21:58:10.638Z,72.30
2018-10-19T22:00:39.117Z,72.27
2018-10-19T22:03:08.216Z,72.17
2018-10-19T22:05:36.659Z,72.38
2018-10-19T22:08:05.766Z,72.50
2018-10-19T22:10:34.401Z,72.38
2018-10-19T22:13:02.891Z,72.66
2018-10-19T22:15:31.280Z,72.94
2018-10-19T22:18:00.275Z,73.06
2018-10-19T22:20:28.706Z,73.30
2018-10-19T22:22:57.379Z,73.28
2018-10-19T22:25:26.717Z,73.61
2018-10-19T22:27:55.174Z,73.89
2018-10-19T22:30:23.611Z,73.80
2018-10-19T22:32:52.208Z,74.05
2018-10-19T22:35:20.598Z,74.11
2018-10-19T22:37:49.024Z,74.12
2018-10-19T22:40:17.975Z,74.46
2018-10-19T22:42:46.396Z,74.51
2018-10-19T22:45:14.835Z,74.84
2018-10-19T22:47:43.454Z,74.73
2018-10-19T22:50:11.875Z,74.82
2018-10-19T22:52:40.341Z,75.08
2018-10-19T22:55:09.004Z,75.23
2018-10-19T22:57:37.438Z,75.31
2018-10-19T23:00:06.615Z,75.36
2018-10-19T23:02:35.306Z,75.35
2018-10-19T23:05:03.789Z,75.41
2018-10-19T23:07:32.206Z,75.45
2018-10-19T23:10:00.830Z,75.34
2018-10-19T23:12:29.244Z,75.72
2018-10-19T23:14:57.664Z,75.73
2018-10-19T23:17:26.681Z,75.80
2018-10-19T23:19:55.100Z,75.67
2018-10-19T23:22:23.552Z,75.58
2018-10-19T23:24:53.387Z,75.82
2018-10-19T23:27:21.803Z,75.74
2018-10-19T23:29:50.207Z,75.79
2018-10-19T23:32:19.090Z,75.59
2018-10-19T23:34:47.637Z,75.56
2018-10-19T23:37:16.105Z,75.26
2018-10-19T23:39:45.145Z,75.58
2018-10-19T23:42:13.555Z,75.29
2018-10-19T23:44:41.966Z,75.03
2018-10-19T23:47:10.949Z,75.11
2018-10-19T23:49:39.364Z,75.19
2018-10-19T23:52:07.829Z,75.03
2018-10-19T23:54:36.940Z,75.18
2018-10-19T23:57:05.440Z,75.24
2018-10-19T23:59:33.870Z,75.04
